sensor_id;sensor_type;location;lat;lon;timestamp;pressure;altitude;pressure_sealevel;temperature;humidity
58662;BME280;44432;49.786;22.760;2023-04-27T00:00:08;99331.65;;;4.33;62.70
58662;BME280;44432;49.786;22.760;2023-04-27T00:02:58;99333.32;;;4.33;62.82
58662;BME280;44432;49.786;22.760;2023-04-27T00:05:34;99332.08;;;4.34;62.83
58662;BME280;44432;49.786;22.760;2023-04-27T00:08:03;99337.50;;;4.33;62.88
58662;BME280;44432;49.786;22.760;2023-04-27T00:10:33;99332.46;;;4.33;63.04
58662;BME280;44432;49.786;22.760;2023-04-27T00:13:02;99334.23;;;4.33;62.75
58662;BME280;44432;49.786;22.760;2023-04-27T00:15:32;99336.39;;;4.32;62.71
58662;BME280;44432;49.786;22.760;2023-04-27T00:18:02;99340.64;;;4.32;62.55
58662;BME280;44432;49.786;22.760;2023-04-27T00:20:31;99338.12;;;4.32;62.73
58662;BME280;44432;49.786;22.760;2023-04-27T00:23:00;99339.55;;;4.34;62.66
58662;BME280;44432;49.786;22.760;2023-04-27T00:25:29;99339.55;;;4.34;62.53
58662;BME280;44432;49.786;22.760;2023-04-27T00:27:58;99340.30;;;4.35;62.75
58662;BME280;44432;49.786;22.760;2023-04-27T00:30:28;99337.11;;;4.34;62.58
58662;BME280;44432;49.786;22.760;2023-04-27T00:32:57;99340.16;;;4.36;62.57
58662;BME280;44432;49.786;22.760;2023-04-27T00:35:26;99338.14;;;4.35;62.61
58662;BME280;44432;49.786;22.760;2023-04-27T00:37:55;99338.45;;;4.34;62.64
58662;BME280;44432;49.786;22.760;2023-04-27T00:40:24;99337.83;;;4.34;62.63
58662;BME280;44432;49.786;22.760;2023-04-27T00:42:53;99331.88;;;4.34;62.88
58662;BME280;44432;49.786;22.760;2023-04-27T00:45:22;99336.34;;;4.34;62.59
58662;BME280;44432;49.786;22.760;2023-04-27T00:47:51;99336.95;;;4.34;62.64
58662;BME280;44432;49.786;22.760;2023-04-27T00:50:23;99335.34;;;4.32;62.38
58662;BME280;44432;49.786;22.760;2023-04-27T00:52:55;99336.95;;;4.32;62.53
58662;BME280;44432;49.786;22.760;2023-04-27T00:55:24;99336.02;;;4.32;62.54
58662;BME280;44432;49.786;22.760;2023-04-27T00:57:53;99334.46;;;4.33;62.69
58662;BME280;44432;49.786;22.760;2023-04-27T01:00:23;99335.70;;;4.32;62.68
58662;BME280;44432;49.786;22.760;2023-04-27T01:02:52;99334.31;;;4.31;62.51
58662;BME280;44432;49.786;22.760;2023-04-27T01:05:22;99331.27;;;4.30;62.46
58662;BME280;44432;49.786;22.760;2023-04-27T01:07:52;99334.52;;;4.29;62.77
58662;BME280;44432;49.786;22.760;2023-04-27T01:10:21;99333.15;;;4.28;62.70
58662;BME280;44432;49.786;22.760;2023-04-27T01:12:50;99337.75;;;4.28;62.63
58662;BME280;44432;49.786;22.760;2023-04-27T01:15:19;99336.18;;;4.28;62.59
58662;BME280;44432;49.786;22.760;2023-04-27T01:17:48;99342.16;;;4.27;62.35
58662;BME280;44432;49.786;22.760;2023-04-27T01:20:17;99342.20;;;4.27;62.59
58662;BME280;44432;49.786;22.760;2023-04-27T01:22:47;99339.84;;;4.28;62.27
58662;BME280;44432;49.786;22.760;2023-04-27T01:25:16;99332.98;;;4.28;62.23
58662;BME280;44432;49.786;22.760;2023-04-27T01:27:46;99339.31;;;4.29;62.56
58662;BME280;44432;49.786;22.760;2023-04-27T01:30:16;99338.89;;;4.30;62.52
58662;BME280;44432;49.786;22.760;2023-04-27T01:32:45;99336.27;;;4.30;62.34
58662;BME280;44432;49.786;22.760;2023-04-27T01:35:14;99335.81;;;4.30;62.41
58662;BME280;44432;49.786;22.760;2023-04-27T01:37:43;99336.34;;;4.30;62.32
58662;BME280;44432;49.786;22.760;2023-04-27T01:40:12;99336.67;;;4.30;62.48
58662;BME280;44432;49.786;22.760;2023-04-27T01:42:42;99336.20;;;4.33;62.56
58662;BME280;44432;49.786;22.760;2023-04-27T01:45:11;99335.89;;;4.34;62.70
58662;BME280;44432;49.786;22.760;2023-04-27T01:47:40;99337.04;;;4.34;62.36
58662;BME280;44432;49.786;22.760;2023-04-27T01:50:09;99336.77;;;4.35;62.14
58662;BME280;44432;49.786;22.760;2023-04-27T01:52:38;99332.40;;;4.34;62.15
58662;BME280;44432;49.786;22.760;2023-04-27T01:55:08;99337.35;;;4.36;62.11
58662;BME280;44432;49.786;22.760;2023-04-27T01:57:37;99336.64;;;4.36;62.09
58662;BME280;44432;49.786;22.760;2023-04-27T02:00:08;99341.38;;;4.36;61.88
58662;BME280;44432;49.786;22.760;2023-04-27T02:02:37;99347.13;;;4.36;61.82
58662;BME280;44432;49.786;22.760;2023-04-27T02:05:07;99341.77;;;4.36;61.97
58662;BME280;44432;49.786;22.760;2023-04-27T02:07:36;99340.81;;;4.36;61.99
58662;BME280;44432;49.786;22.760;2023-04-27T02:10:07;99341.80;;;4.37;61.95
58662;BME280;44432;49.786;22.760;2023-04-27T02:12:36;99345.25;;;4.37;62.14
58662;BME280;44432;49.786;22.760;2023-04-27T02:15:06;99343.00;;;4.37;62.04
58662;BME280;44432;49.786;22.760;2023-04-27T02:17:35;99342.13;;;4.36;62.04
58662;BME280;44432;49.786;22.760;2023-04-27T02:20:06;99341.73;;;4.35;62.17
58662;BME280;44432;49.786;22.760;2023-04-27T02:22:35;99341.61;;;4.34;62.29
58662;BME280;44432;49.786;22.760;2023-04-27T02:25:05;99344.48;;;4.35;62.23
58662;BME280;44432;49.786;22.760;2023-04-27T02:27:37;99342.20;;;4.33;62.08
58662;BME280;44432;49.786;22.760;2023-04-27T02:30:06;99339.86;;;4.31;62.30
58662;BME280;44432;49.786;22.760;2023-04-27T02:32:36;99346.16;;;4.32;62.45
58662;BME280;44432;49.786;22.760;2023-04-27T02:35:06;99349.27;;;4.31;62.33
58662;BME280;44432;49.786;22.760;2023-04-27T02:37:35;99353.80;;;4.31;62.43
58662;BME280;44432;49.786;22.760;2023-04-27T02:40:05;99351.89;;;4.31;62.48
58662;BME280;44432;49.786;22.760;2023-04-27T02:42:35;99350.58;;;4.32;62.28
58662;BME280;44432;49.786;22.760;2023-04-27T02:45:06;99356.20;;;4.31;62.37
58662;BME280;44432;49.786;22.760;2023-04-27T02:47:35;99357.23;;;4.31;62.36
58662;BME280;44432;49.786;22.760;2023-04-27T02:50:05;99361.16;;;4.31;62.37
58662;BME280;44432;49.786;22.760;2023-04-27T02:52:34;99362.27;;;4.32;62.56
58662;BME280;44432;49.786;22.760;2023-04-27T02:55:04;99361.15;;;4.32;62.59
58662;BME280;44432;49.786;22.760;2023-04-27T02:57:33;99360.50;;;4.33;62.52
58662;BME280;44432;49.786;22.760;2023-04-27T03:00:02;99359.61;;;4.33;62.56
58662;BME280;44432;49.786;22.760;2023-04-27T03:02:33;99358.14;;;4.34;62.68
58662;BME280;44432;49.786;22.760;2023-04-27T03:05:02;99364.05;;;4.34;62.73
58662;BME280;44432;49.786;22.760;2023-04-27T03:07:32;99365.79;;;4.34;62.69
58662;BME280;44432;49.786;22.760;2023-04-27T03:10:01;99363.83;;;4.35;62.63
58662;BME280;44432;49.786;22.760;2023-04-27T03:12:30;99364.86;;;4.35;62.60
58662;BME280;44432;49.786;22.760;2023-04-27T03:14:59;99368.60;;;4.34;62.73
58662;BME280;44432;49.786;22.760;2023-04-27T03:17:28;99374.48;;;4.35;62.73
58662;BME280;44432;49.786;22.760;2023-04-27T03:19:57;99373.95;;;4.35;62.87
58662;BME280;44432;49.786;22.760;2023-04-27T03:22:27;99376.98;;;4.35;62.70
58662;BME280;44432;49.786;22.760;2023-04-27T03:24:56;99381.82;;;4.36;62.81
58662;BME280;44432;49.786;22.760;2023-04-27T03:27:25;99383.77;;;4.37;62.89
58662;BME280;44432;49.786;22.760;2023-04-27T03:29:54;99382.30;;;4.38;62.86
58662;BME280;44432;49.786;22.760;2023-04-27T03:32:23;99390.38;;;4.39;62.87
58662;BME280;44432;49.786;22.760;2023-04-27T03:34:52;99389.09;;;4.39;63.01
58662;BME280;44432;49.786;22.760;2023-04-27T03:37:21;99393.13;;;4.42;62.83
58662;BME280;44432;49.786;22.760;2023-04-27T03:39:50;99389.92;;;4.43;62.91
58662;BME280;44432;49.786;22.760;2023-04-27T03:42:20;99395.97;;;4.43;63.16
58662;BME280;44432;49.786;22.760;2023-04-27T03:44:49;99398.19;;;4.45;63.30
58662;BME280;44432;49.786;22.760;2023-04-27T03:47:18;99401.77;;;4.46;63.13
58662;BME280;44432;49.786;22.760;2023-04-27T03:49:47;99401.77;;;4.46;63.22
58662;BME280;44432;49.786;22.760;2023-04-27T03:52:16;99401.64;;;4.47;63.32
58662;BME280;44432;49.786;22.760;2023-04-27T03:54:45;99402.88;;;4.49;63.29
58662;BME280;44432;49.786;22.760;2023-04-27T03:57:14;99403.81;;;4.51;63.11
58662;BME280;44432;49.786;22.760;2023-04-27T03:59:43;99407.50;;;4.52;63.29
58662;BME280;44432;49.786;22.760;2023-04-27T04:02:12;99409.45;;;4.53;63.25
58662;BME280;44432;49.786;22.760;2023-04-27T04:04:42;99410.70;;;4.55;63.32
58662;BME280;44432;49.786;22.760;2023-04-27T04:07:11;99409.45;;;4.57;63.18
58662;BME280;44432;49.786;22.760;2023-04-27T04:09:40;99415.70;;;4.58;63.17
58662;BME280;44432;49.786;22.760;2023-04-27T04:12:10;99417.16;;;4.61;63.20
58662;BME280;44432;49.786;22.760;2023-04-27T04:14:39;99419.80;;;4.63;63.16
58662;BME280;44432;49.786;22.760;2023-04-27T04:17:09;99421.30;;;4.65;63.26
58662;BME280;44432;49.786;22.760;2023-04-27T04:19:38;99428.91;;;4.68;63.35
58662;BME280;44432;49.786;22.760;2023-04-27T04:22:08;99429.67;;;4.71;63.12
58662;BME280;44432;49.786;22.760;2023-04-27T04:24:37;99431.14;;;4.73;63.39
58662;BME280;44432;49.786;22.760;2023-04-27T04:27:06;99431.64;;;4.76;63.23
58662;BME280;44432;49.786;22.760;2023-04-27T04:29:36;99433.33;;;4.80;63.31
58662;BME280;44432;49.786;22.760;2023-04-27T04:32:05;99438.27;;;4.84;63.29
58662;BME280;44432;49.786;22.760;2023-04-27T04:34:36;99439.36;;;4.88;63.26
58662;BME280;44432;49.786;22.760;2023-04-27T04:37:05;99440.58;;;4.93;63.11
58662;BME280;44432;49.786;22.760;2023-04-27T04:39:34;99440.82;;;4.98;63.04
58662;BME280;44432;49.786;22.760;2023-04-27T04:42:03;99441.22;;;5.00;63.16
58662;BME280;44432;49.786;22.760;2023-04-27T04:44:32;99447.63;;;5.08;63.04
58662;BME280;44432;49.786;22.760;2023-04-27T04:47:01;99449.29;;;5.15;62.90
58662;BME280;44432;49.786;22.760;2023-04-27T04:49:30;99447.94;;;5.22;63.04
58662;BME280;44432;49.786;22.760;2023-04-27T04:52:00;99442.92;;;5.28;62.86
58662;BME280;44432;49.786;22.760;2023-04-27T04:54:29;99450.79;;;5.35;62.80
58662;BME280;44432;49.786;22.760;2023-04-27T04:56:58;99448.31;;;5.42;62.70
58662;BME280;44432;49.786;22.760;2023-04-27T04:59:28;99452.21;;;5.50;62.39
58662;BME280;44432;49.786;22.760;2023-04-27T05:01:57;99455.05;;;5.55;62.31
58662;BME280;44432;49.786;22.760;2023-04-27T05:04:26;99461.45;;;5.63;62.16
58662;BME280;44432;49.786;22.760;2023-04-27T05:06:55;99461.92;;;5.69;61.80
58662;BME280;44432;49.786;22.760;2023-04-27T05:09:24;99465.17;;;5.75;61.62
58662;BME280;44432;49.786;22.760;2023-04-27T05:11:53;99465.20;;;5.82;61.60
58662;BME280;44432;49.786;22.760;2023-04-27T05:14:22;99469.71;;;5.91;61.61
58662;BME280;44432;49.786;22.760;2023-04-27T05:16:51;99467.05;;;6.00;61.42
58662;BME280;44432;49.786;22.760;2023-04-27T05:19:20;99467.02;;;6.14;61.59
58662;BME280;44432;49.786;22.760;2023-04-27T05:21:49;99470.30;;;6.27;61.50
58662;BME280;44432;49.786;22.760;2023-04-27T05:24:18;99469.98;;;6.40;61.36
58662;BME280;44432;49.786;22.760;2023-04-27T05:26:47;99475.63;;;6.51;61.02
58662;BME280;44432;49.786;22.760;2023-04-27T05:29:17;99477.11;;;6.60;60.66
58662;BME280;44432;49.786;22.760;2023-04-27T05:31:46;99480.30;;;6.69;60.20
58662;BME280;44432;49.786;22.760;2023-04-27T05:34:15;99483.16;;;6.75;60.29
58662;BME280;44432;49.786;22.760;2023-04-27T05:36:44;99486.27;;;6.77;60.22
58662;BME280;44432;49.786;22.760;2023-04-27T05:39:13;99487.16;;;6.75;59.47
58662;BME280;44432;49.786;22.760;2023-04-27T05:41:43;99489.26;;;6.68;59.56
58662;BME280;44432;49.786;22.760;2023-04-27T05:44:12;99486.35;;;6.60;59.56
58662;BME280;44432;49.786;22.760;2023-04-27T05:46:41;99491.96;;;6.57;59.45
58662;BME280;44432;49.786;22.760;2023-04-27T05:49:10;99495.19;;;6.56;59.92
58662;BME280;44432;49.786;22.760;2023-04-27T05:51:39;99496.20;;;6.60;60.05
58662;BME280;44432;49.786;22.760;2023-04-27T05:54:08;99498.27;;;6.63;59.89
58662;BME280;44432;49.786;22.760;2023-04-27T05:56:37;99502.42;;;6.66;59.42
58662;BME280;44432;49.786;22.760;2023-04-27T05:59:06;99502.83;;;6.69;59.57
58662;BME280;44432;49.786;22.760;2023-04-27T06:01:36;99500.27;;;6.75;59.64
58662;BME280;44432;49.786;22.760;2023-04-27T06:04:05;99508.91;;;6.83;59.43
58662;BME280;44432;49.786;22.760;2023-04-27T06:06:34;99503.92;;;6.92;59.12
58662;BME280;44432;49.786;22.760;2023-04-27T06:09:03;99503.09;;;6.99;58.86
58662;BME280;44432;49.786;22.760;2023-04-27T06:11:32;99503.76;;;7.05;57.98
58662;BME280;44432;49.786;22.760;2023-04-27T06:14:01;99499.84;;;7.08;58.21
58662;BME280;44432;49.786;22.760;2023-04-27T06:16:30;99505.20;;;7.14;58.18
58662;BME280;44432;49.786;22.760;2023-04-27T06:19:00;99500.58;;;7.19;58.03
58662;BME280;44432;49.786;22.760;2023-04-27T06:21:30;99504.63;;;7.28;58.41
58662;BME280;44432;49.786;22.760;2023-04-27T06:24:00;99505.44;;;7.34;57.70
58662;BME280;44432;49.786;22.760;2023-04-27T06:26:29;99511.67;;;7.40;57.75
58662;BME280;44432;49.786;22.760;2023-04-27T06:28:58;99508.69;;;7.40;55.99
58662;BME280;44432;49.786;22.760;2023-04-27T06:31:27;99507.73;;;7.45;55.24
58662;BME280;44432;49.786;22.760;2023-04-27T06:33:56;99510.81;;;7.50;55.08
58662;BME280;44432;49.786;22.760;2023-04-27T06:36:25;99510.27;;;7.55;55.15
58662;BME280;44432;49.786;22.760;2023-04-27T06:38:55;99509.77;;;7.58;54.77
58662;BME280;44432;49.786;22.760;2023-04-27T06:41:25;99511.56;;;7.65;54.71
58662;BME280;44432;49.786;22.760;2023-04-27T06:43:54;99520.20;;;7.68;53.96
58662;BME280;44432;49.786;22.760;2023-04-27T06:46:23;99519.02;;;7.67;53.66
58662;BME280;44432;49.786;22.760;2023-04-27T06:48:52;99519.92;;;7.67;53.42
58662;BME280;44432;49.786;22.760;2023-04-27T06:51:21;99521.03;;;7.69;53.36
58662;BME280;44432;49.786;22.760;2023-04-27T06:53:51;99515.33;;;7.73;53.84
58662;BME280;44432;49.786;22.760;2023-04-27T06:56:20;99517.54;;;7.81;53.45
58662;BME280;44432;49.786;22.760;2023-04-27T06:58:49;99515.70;;;7.88;53.49
58662;BME280;44432;49.786;22.760;2023-04-27T07:01:18;99515.77;;;7.95;51.95
58662;BME280;44432;49.786;22.760;2023-04-27T07:03:47;99520.21;;;8.05;51.67
58662;BME280;44432;49.786;22.760;2023-04-27T07:06:16;99519.19;;;8.12;51.50
58662;BME280;44432;49.786;22.760;2023-04-27T07:08:45;99517.85;;;8.18;51.89
58662;BME280;44432;49.786;22.760;2023-04-27T07:11:14;99523.08;;;8.29;52.14
58662;BME280;44432;49.786;22.760;2023-04-27T07:13:43;99524.63;;;8.38;50.74
58662;BME280;44432;49.786;22.760;2023-04-27T07:16:12;99523.27;;;8.35;50.02
58662;BME280;44432;49.786;22.760;2023-04-27T07:18:41;99522.31;;;8.30;49.72
58662;BME280;44432;49.786;22.760;2023-04-27T07:21:10;99525.30;;;8.30;49.32
58662;BME280;44432;49.786;22.760;2023-04-27T07:23:39;99527.32;;;8.34;49.95
58662;BME280;44432;49.786;22.760;2023-04-27T07:26:09;99524.42;;;8.37;49.86
58662;BME280;44432;49.786;22.760;2023-04-27T07:28:38;99530.21;;;8.43;50.23
58662;BME280;44432;49.786;22.760;2023-04-27T07:31:07;99531.63;;;8.56;50.05
58662;BME280;44432;49.786;22.760;2023-04-27T07:33:37;99533.59;;;8.71;49.69
58662;BME280;44432;49.786;22.760;2023-04-27T07:36:06;99534.42;;;8.84;49.64
58662;BME280;44432;49.786;22.760;2023-04-27T07:38:35;99537.55;;;9.00;49.84
58662;BME280;44432;49.786;22.760;2023-04-27T07:41:05;99532.56;;;9.17;49.28
58662;BME280;44432;49.786;22.760;2023-04-27T07:43:35;99528.83;;;9.35;48.90
58662;BME280;44432;49.786;22.760;2023-04-27T07:46:04;99533.59;;;9.47;48.16
58662;BME280;44432;49.786;22.760;2023-04-27T07:48:34;99525.02;;;9.56;48.28
58662;BME280;44432;49.786;22.760;2023-04-27T07:51:03;99527.31;;;9.69;47.80
58662;BME280;44432;49.786;22.760;2023-04-27T07:53:35;99531.15;;;9.83;47.35
58662;BME280;44432;49.786;22.760;2023-04-27T07:56:05;99527.27;;;9.91;46.16
58662;BME280;44432;49.786;22.760;2023-04-27T07:58:35;99527.75;;;9.93;46.21
58662;BME280;44432;49.786;22.760;2023-04-27T08:01:04;99524.47;;;10.02;46.50
58662;BME280;44432;49.786;22.760;2023-04-27T08:03:34;99521.63;;;10.00;44.85
58662;BME280;44432;49.786;22.760;2023-04-27T08:06:03;99530.99;;;9.88;45.18
58662;BME280;44432;49.786;22.760;2023-04-27T08:08:32;99531.56;;;9.84;46.13
58662;BME280;44432;49.786;22.760;2023-04-27T08:11:01;99527.83;;;9.88;46.33
58662;BME280;44432;49.786;22.760;2023-04-27T08:13:30;99529.17;;;9.91;46.41
58662;BME280;44432;49.786;22.760;2023-04-27T08:16:01;99533.42;;;9.91;45.62
58662;BME280;44432;49.786;22.760;2023-04-27T08:18:30;99535.65;;;9.80;45.46
58662;BME280;44432;49.786;22.760;2023-04-27T08:20:59;99535.67;;;9.73;45.39
58662;BME280;44432;49.786;22.760;2023-04-27T08:23:28;99533.42;;;9.76;45.89
58662;BME280;44432;49.786;22.760;2023-04-27T08:25:58;99528.32;;;9.93;45.38
58662;BME280;44432;49.786;22.760;2023-04-27T08:28:27;99525.98;;;10.15;43.83
58662;BME280;44432;49.786;22.760;2023-04-27T08:30:56;99528.15;;;10.28;42.40
58662;BME280;44432;49.786;22.760;2023-04-27T08:33:25;99530.02;;;10.33;42.09
58662;BME280;44432;49.786;22.760;2023-04-27T08:35:54;99527.95;;;10.31;42.33
58662;BME280;44432;49.786;22.760;2023-04-27T08:38:23;99530.94;;;10.19;42.45
58662;BME280;44432;49.786;22.760;2023-04-27T08:40:52;99535.76;;;10.11;43.11
58662;BME280;44432;49.786;22.760;2023-04-27T08:43:21;99545.34;;;10.02;42.96
58662;BME280;44432;49.786;22.760;2023-04-27T08:45:50;99548.73;;;9.90;43.46
58662;BME280;44432;49.786;22.760;2023-04-27T08:48:20;99552.73;;;9.81;43.33
58662;BME280;44432;49.786;22.760;2023-04-27T08:50:49;99551.84;;;9.61;43.46
58662;BME280;44432;49.786;22.760;2023-04-27T08:53:19;99551.55;;;9.44;44.16
58662;BME280;44432;49.786;22.760;2023-04-27T08:55:49;99552.17;;;9.36;44.89
58662;BME280;44432;49.786;22.760;2023-04-27T08:58:18;99556.16;;;9.32;44.95
58662;BME280;44432;49.786;22.760;2023-04-27T09:00:47;99552.17;;;9.27;45.18
58662;BME280;44432;49.786;22.760;2023-04-27T09:03:24;99548.66;;;9.34;45.80
58662;BME280;44432;49.786;22.760;2023-04-27T09:05:53;99548.65;;;9.51;46.14
58662;BME280;44432;49.786;22.760;2023-04-27T09:08:22;99548.20;;;9.67;45.76
58662;BME280;44432;49.786;22.760;2023-04-27T09:10:52;99542.78;;;9.73;45.02
58662;BME280;44432;49.786;22.760;2023-04-27T09:13:21;99546.16;;;9.80;44.54
58662;BME280;44432;49.786;22.760;2023-04-27T09:15:50;99543.60;;;9.83;42.87
58662;BME280;44432;49.786;22.760;2023-04-27T09:18:20;99544.25;;;9.82;43.12
58662;BME280;44432;49.786;22.760;2023-04-27T09:20:50;99544.55;;;9.92;42.93
58662;BME280;44432;49.786;22.760;2023-04-27T09:23:25;99540.86;;;9.93;42.67
58662;BME280;44432;49.786;22.760;2023-04-27T09:25:55;99539.40;;;9.95;43.13
58662;BME280;44432;49.786;22.760;2023-04-27T09:28:25;99539.52;;;9.90;43.18
58662;BME280;44432;49.786;22.760;2023-04-27T09:30:55;99536.52;;;9.88;43.71
58662;BME280;44432;49.786;22.760;2023-04-27T09:33:25;99533.51;;;9.89;44.29
58662;BME280;44432;49.786;22.760;2023-04-27T09:35:54;99534.21;;;9.97;44.52
58662;BME280;44432;49.786;22.760;2023-04-27T09:38:24;99526.21;;;9.98;43.98
58662;BME280;44432;49.786;22.760;2023-04-27T09:40:53;99529.70;;;9.93;44.09
58662;BME280;44432;49.786;22.760;2023-04-27T09:43:23;99529.86;;;9.87;43.64
58662;BME280;44432;49.786;22.760;2023-04-27T09:45:54;99527.69;;;9.73;43.77
58662;BME280;44432;49.786;22.760;2023-04-27T09:48:23;99530.92;;;9.72;43.95
58662;BME280;44432;49.786;22.760;2023-04-27T09:50:53;99536.29;;;9.72;43.19
58662;BME280;44432;49.786;22.760;2023-04-27T09:53:24;99532.30;;;9.69;42.72
58662;BME280;44432;49.786;22.760;2023-04-27T09:55:57;99531.38;;;9.69;42.68
58662;BME280;44432;49.786;22.760;2023-04-27T09:58:39;99530.25;;;9.76;42.72
58662;BME280;44432;49.786;22.760;2023-04-27T10:01:15;99526.41;;;9.94;42.67
58662;BME280;44432;49.786;22.760;2023-04-27T10:03:54;99523.23;;;10.16;43.20
58662;BME280;44432;49.786;22.760;2023-04-27T10:06:50;99519.02;;;10.45;43.18
58662;BME280;44432;49.786;22.760;2023-04-27T10:09:21;99526.98;;;10.58;41.30
58662;BME280;44432;49.786;22.760;2023-04-27T10:11:51;99528.42;;;10.50;41.16
58662;BME280;44432;49.786;22.760;2023-04-27T10:14:21;99531.95;;;10.39;41.26
58662;BME280;44432;49.786;22.760;2023-04-27T10:16:51;99526.64;;;10.21;41.19
58662;BME280;44432;49.786;22.760;2023-04-27T10:19:21;99527.10;;;9.99;41.48
58662;BME280;44432;49.786;22.760;2023-04-27T10:21:52;99529.61;;;9.84;41.83
58662;BME280;44432;49.786;22.760;2023-04-27T10:24:31;99526.23;;;9.70;42.36
58662;BME280;44432;49.786;22.760;2023-04-27T10:27:02;99525.79;;;9.69;43.01
58662;BME280;44432;49.786;22.760;2023-04-27T10:29:36;99524.69;;;9.72;43.31
58662;BME280;44432;49.786;22.760;2023-04-27T10:32:06;99531.77;;;9.66;42.94
58662;BME280;44432;49.786;22.760;2023-04-27T10:34:36;99529.63;;;9.67;43.44
58662;BME280;44432;49.786;22.760;2023-04-27T10:37:05;99527.33;;;9.75;43.77
58662;BME280;44432;49.786;22.760;2023-04-27T10:39:35;99523.52;;;9.93;44.01
58662;BME280;44432;49.786;22.760;2023-04-27T10:42:06;99521.85;;;10.17;43.90
58662;BME280;44432;49.786;22.760;2023-04-27T10:44:35;99525.36;;;10.41;43.73
58662;BME280;44432;49.786;22.760;2023-04-27T10:47:13;99523.07;;;10.64;43.34
58662;BME280;44432;49.786;22.760;2023-04-27T10:49:42;99524.45;;;10.94;43.14
58662;BME280;44432;49.786;22.760;2023-04-27T10:52:11;99525.05;;;11.18;42.21
58662;BME280;44432;49.786;22.760;2023-04-27T10:54:44;99524.95;;;11.24;40.42
58662;BME280;44432;49.786;22.760;2023-04-27T10:57:13;99529.63;;;11.25;40.76
58662;BME280;44432;49.786;22.760;2023-04-27T10:59:49;99523.96;;;11.15;39.84
58662;BME280;44432;49.786;22.760;2023-04-27T11:02:23;99529.27;;;11.09;40.89
58662;BME280;44432;49.786;22.760;2023-04-27T11:04:54;99531.74;;;11.13;41.12
58662;BME280;44432;49.786;22.760;2023-04-27T11:07:24;99530.73;;;11.14;41.12
58662;BME280;44432;49.786;22.760;2023-04-27T11:09:54;99533.80;;;11.08;41.34
58662;BME280;44432;49.786;22.760;2023-04-27T11:12:23;99533.28;;;11.15;41.12
58662;BME280;44432;49.786;22.760;2023-04-27T11:14:57;99535.41;;;11.21;40.37
58662;BME280;44432;49.786;22.760;2023-04-27T11:17:29;99535.41;;;11.20;40.34
58662;BME280;44432;49.786;22.760;2023-04-27T11:19:58;99530.89;;;11.14;40.20
58662;BME280;44432;49.786;22.760;2023-04-27T11:22:27;99534.42;;;11.14;39.95
58662;BME280;44432;49.786;22.760;2023-04-27T11:24:56;99537.39;;;11.13;39.79
58662;BME280;44432;49.786;22.760;2023-04-27T11:27:34;99534.48;;;11.09;39.76
58662;BME280;44432;49.786;22.760;2023-04-27T11:30:04;99531.95;;;11.01;39.41
58662;BME280;44432;49.786;22.760;2023-04-27T11:32:35;99530.42;;;11.03;39.41
58662;BME280;44432;49.786;22.760;2023-04-27T11:35:04;99527.27;;;11.15;39.07
58662;BME280;44432;49.786;22.760;2023-04-27T11:37:34;99521.81;;;11.24;39.17
58662;BME280;44432;49.786;22.760;2023-04-27T11:40:03;99513.66;;;11.29;38.94
58662;BME280;44432;49.786;22.760;2023-04-27T11:42:32;99519.20;;;11.35;39.27
58662;BME280;44432;49.786;22.760;2023-04-27T11:45:02;99518.09;;;11.37;38.85
58662;BME280;44432;49.786;22.760;2023-04-27T11:47:32;99514.60;;;11.36;39.54
58662;BME280;44432;49.786;22.760;2023-04-27T11:50:03;99520.55;;;11.52;40.00
58662;BME280;44432;49.786;22.760;2023-04-27T11:52:34;99523.34;;;11.55;39.93
58662;BME280;44432;49.786;22.760;2023-04-27T11:55:04;99522.41;;;11.61;40.31
58662;BME280;44432;49.786;22.760;2023-04-27T11:57:35;99525.69;;;11.69;39.94
58662;BME280;44432;49.786;22.760;2023-04-27T12:00:05;99526.42;;;11.69;40.27
58662;BME280;44432;49.786;22.760;2023-04-27T12:02:37;99527.14;;;11.65;39.93
58662;BME280;44432;49.786;22.760;2023-04-27T12:05:07;99529.95;;;11.63;40.28
58662;BME280;44432;49.786;22.760;2023-04-27T12:07:38;99526.95;;;11.68;39.96
58662;BME280;44432;49.786;22.760;2023-04-27T12:10:08;99531.34;;;11.78;39.13
58662;BME280;44432;49.786;22.760;2023-04-27T12:12:37;99528.88;;;11.84;38.77
58662;BME280;44432;49.786;22.760;2023-04-27T12:15:07;99529.63;;;11.93;38.77
58662;BME280;44432;49.786;22.760;2023-04-27T12:17:37;99527.48;;;12.07;38.70
58662;BME280;44432;49.786;22.760;2023-04-27T12:20:07;99527.90;;;12.26;38.14
58662;BME280;44432;49.786;22.760;2023-04-27T12:22:36;99531.98;;;12.46;37.33
58662;BME280;44432;49.786;22.760;2023-04-27T12:25:06;99527.39;;;12.46;36.12
58662;BME280;44432;49.786;22.760;2023-04-27T12:27:36;99523.05;;;12.54;36.46
58662;BME280;44432;49.786;22.760;2023-04-27T12:30:06;99521.16;;;12.55;35.66
58662;BME280;44432;49.786;22.760;2023-04-27T12:32:36;99518.34;;;12.55;36.14
58662;BME280;44432;49.786;22.760;2023-04-27T12:35:05;99517.08;;;12.63;35.78
58662;BME280;44432;49.786;22.760;2023-04-27T12:37:35;99516.60;;;12.67;35.60
58662;BME280;44432;49.786;22.760;2023-04-27T12:40:06;99512.98;;;12.63;35.43
58662;BME280;44432;49.786;22.760;2023-04-27T12:42:35;99513.48;;;12.53;34.86
58662;BME280;44432;49.786;22.760;2023-04-27T12:45:05;99517.81;;;12.37;35.45
58662;BME280;44432;49.786;22.760;2023-04-27T12:47:35;99522.55;;;12.31;35.28
58662;BME280;44432;49.786;22.760;2023-04-27T12:50:05;99523.03;;;12.19;35.38
58662;BME280;44432;49.786;22.760;2023-04-27T12:52:34;99522.05;;;12.08;35.21
58662;BME280;44432;49.786;22.760;2023-04-27T12:55:03;99522.52;;;12.02;35.65
58662;BME280;44432;49.786;22.760;2023-04-27T12:57:33;99512.98;;;12.03;36.01
58662;BME280;44432;49.786;22.760;2023-04-27T13:00:02;99513.52;;;12.18;36.60
58662;BME280;44432;49.786;22.760;2023-04-27T13:02:34;99514.57;;;12.36;36.63
58662;BME280;44432;49.786;22.760;2023-04-27T13:05:04;99515.92;;;12.39;36.53
58662;BME280;44432;49.786;22.760;2023-04-27T13:07:34;99518.91;;;12.42;36.72
58662;BME280;44432;49.786;22.760;2023-04-27T13:10:04;99520.27;;;12.40;36.80